Time;durP1;ratioP1;P1;durP2;ratioP2;P2;SDS_P1;SDS_P2;PMS_P1;PMS_P2;Temp;Humidity;BMP_temperature;BMP_pressure;BME280_temperature;BME280_humidity;BME280_pressure;Samples;Min_cycle;Max_cycle;Signal;HPM_P1;HPM_P2
2023/12/12 00:02:21;;;;;;;49.10;26.85;;;;;;;;;;5099751;28;20205;-79
2023/12/12 00:04:52;;;;;;;56.45;27.90;;;;;;;-142.91;100.00;56616.03;5094742;28;20201;-78
2023/12/12 00:07:22;;;;;;;65.28;27.88;;;;;;;;;;5099468;28;20301;-76
2023/12/12 00:09:58;;;;;;;51.58;27.35;;;;;;;-142.91;100.00;56616.03;5106365;28;20213;-76
2023/12/12 00:12:31;;;;;;;52.35;27.48;;;;;;;-142.91;100.00;56616.03;5104504;28;20229;-75
2023/12/12 00:15:17;;;;;;;61.25;28.00;;;;;;;-142.91;100.00;56616.03;5095563;28;20197;-73
2023/12/12 00:17:58;;;;;;;55.33;30.85;;;;;;;-142.91;100.00;56616.03;5107703;28;20624;-73
2023/12/12 00:20:36;;;;;;;67.82;30.80;;;;;;;;;;5103764;28;20259;-74
2023/12/12 00:23:06;;;;;;;60.05;32.50;;;;;;;;;;5096674;28;20207;-73
2023/12/12 00:25:40;;;;;;;72.50;33.17;;;;;;;-142.91;100.00;56616.03;5098871;28;20284;-81
2023/12/12 00:28:15;;;;;;;68.75;30.75;;;;;;;;;;5105717;28;20292;-77
2023/12/12 00:31:01;;;;;;;62.30;29.05;;;;;;;-142.91;100.00;56616.03;5099695;28;20208;-77
2023/12/12 00:33:36;;;;;;;75.22;31.52;;;;;;;;;;5100686;28;20668;-79
2023/12/12 00:36:33;;;;;;;61.70;31.42;;;;;;;-142.91;100.00;56616.03;5095652;28;20240;-79
2023/12/12 00:39:18;;;;;;;60.75;29.52;;;;;;;-142.91;100.00;56616.03;5098957;28;20258;-79
2023/12/12 00:45:44;;;;;;;60.25;27.30;;;;;;;-142.91;100.00;56616.03;5108427;27;20627;-82
2023/12/12 00:48:19;;;;;;;65.80;27.52;;;;;;;;;;5091595;28;20202;-80
2023/12/12 00:50:48;;;;;;;55.80;27.48;;;;;;;;;;5093023;28;20260;-83
2023/12/12 00:53:22;;;;;;;58.78;30.63;;;;;;;-142.91;100.00;56616.03;5091857;28;20194;-83
2023/12/12 00:56:03;;;;;;;63.53;30.55;;;;;;;;;;5093694;28;20198;-80
2023/12/12 00:58:38;;;;;;;63.70;30.38;;;;;;;-142.91;100.00;56616.03;5096990;28;20223;-79
2023/12/12 01:04:53;;;;;;;57.80;28.77;;;;;;;-142.91;100.00;56616.03;5089919;28;20609;-79
2023/12/12 01:07:32;;;;;;;55.75;29.45;;;;;;;;;;5089800;28;20280;-80
2023/12/12 01:10:02;;;;;;;53.15;29.88;;;;;;;;;;5090710;28;20215;-78
2023/12/12 01:12:39;;;;;;;57.60;30.42;;;;;;;24.55;100.00;56616.03;5092980;28;20656;-83
2023/12/12 01:15:30;;;;;;;60.38;31.10;;;;;;;;;;5097568;28;20210;-80
2023/12/12 01:18:15;;;;;;;64.57;31.92;;;;;;;;;;5100601;28;20264;-75
2023/12/12 01:21:20;;;;;;;60.58;29.90;;;;;;;-142.91;100.00;56616.03;5096145;28;20588;-77
2023/12/12 01:23:59;;;;;;;58.30;28.88;;;;;;;;;;5096908;28;20308;-77
2023/12/12 01:27:08;;;;;;;60.63;28.35;;;;;;;-142.91;100.00;56616.03;5086061;28;20202;-76
2023/12/12 01:29:35;;;;;;;56.50;25.13;;;;;;;-142.91;100.00;56616.03;5098402;28;20617;-78
2023/12/12 01:32:02;;;;;;;46.63;23.85;;;;;;;;;;5096588;28;20252;-74
2023/12/12 01:34:40;;;;;;;52.00;24.17;;;;;;;-142.91;100.00;56616.03;5094843;28;20556;-83
2023/12/12 01:37:12;;;;;;;45.92;23.10;;;;;;;-142.91;100.00;56616.03;5095140;28;20209;-77
2023/12/12 01:40:04;;;;;;;45.97;23.65;;;;;;;-142.91;100.00;56616.03;5090128;28;20221;-82
2023/12/12 01:42:34;;;;;;;45.63;22.00;;;;;;;-142.91;100.00;56616.03;5086982;28;20224;-86
2023/12/12 01:45:15;;;;;;;45.90;21.95;;;;;;;-142.91;100.00;56616.03;5074325;28;20576;-78
2023/12/12 01:47:52;;;;;;;44.13;21.65;;;;;;;-142.91;100.00;56616.03;5073079;28;20225;-88
2023/12/12 01:50:25;;;;;;;44.42;21.17;;;;;;;-142.91;100.00;56616.03;5072425;28;20198;-79
2023/12/12 01:53:01;;;;;;;39.40;19.75;;;;;;;-142.91;100.00;56616.03;5056776;28;20202;-77
2023/12/12 01:58:31;;;;;;;46.92;22.60;;;;;;;-142.91;100.00;56616.03;5067957;28;20194;-79
2023/12/12 02:01:20;;;;;;;47.33;21.70;;;;;;;-142.91;100.00;56616.03;5065583;28;20244;-79
2023/12/12 02:03:51;;;;;;;44.38;21.55;;;;;;;;;;5071513;28;20218;-82
2023/12/12 02:16:35;;;;;;;55.08;22.90;;;;;;;-142.91;100.00;56616.03;5104953;28;20253;-75
2023/12/12 02:19:04;;;;;;;44.60;23.48;;;;;;;-142.91;100.00;56616.03;5094611;28;20287;-78
2023/12/12 02:21:50;;;;;;;42.92;23.73;;;;;;;;;;5098053;28;20634;-85
2023/12/12 02:24:56;;;;;;;48.85;22.90;;;;;;;-142.91;100.00;56616.03;5098757;28;20254;-77
2023/12/12 02:27:58;;;;;;;39.65;23.38;;;;;;;-142.91;100.00;56616.03;5087765;28;21987;-83
2023/12/12 02:30:28;;;;;;;44.90;22.80;;;;;;;-142.91;100.00;56616.03;5091434;28;20210;-78
2023/12/12 02:33:12;;;;;;;50.90;24.33;;;;;;;-142.91;100.00;56616.03;5094295;28;20333;-79
2023/12/12 02:35:42;;;;;;;50.97;23.90;;;;;;;-142.91;100.00;56616.03;5091691;28;20206;-83
2023/12/12 02:38:21;;;;;;;49.92;24.38;;;;;;;23.57;100.00;56616.03;5093836;28;20255;-84
2023/12/12 02:41:02;;;;;;;45.25;23.02;;;;;;;-142.91;100.00;56616.03;5089635;28;20205;-84
2023/12/12 02:43:40;;;;;;;47.35;23.00;;;;;;;-142.91;100.00;56616.03;5093214;28;20193;-78
2023/12/12 02:49:10;;;;;;;42.88;23.80;;;;;;;-142.91;100.00;56616.03;5095859;28;20292;-85
2023/12/12 02:51:39;;;;;;;51.05;23.63;;;;;;;23.26;100.00;56616.03;5099088;28;20193;-82
2023/12/12 02:54:09;;;;;;;41.03;22.38;;;;;;;-142.91;100.00;56616.03;5090028;28;20228;-85
2023/12/12 02:56:38;;;;;;;50.00;23.48;;;;;;;23.41;100.00;56616.03;5090828;28;20214;-82
2023/12/12 02:59:27;;;;;;;41.03;21.17;;;;;;;-142.91;100.00;56616.03;5099874;28;20206;-80
2023/12/12 03:02:01;;;;;;;42.88;22.02;;;;;;;-142.91;100.00;56616.03;5104613;28;21240;-78
2023/12/12 03:04:36;;;;;;;42.92;22.23;;;;;;;-142.91;100.00;56616.03;5100895;28;20194;-81
2023/12/12 03:07:04;;;;;;;38.42;20.63;;;;;;;23.33;100.00;56616.03;5093183;28;20658;-84
2023/12/12 03:09:30;;;;;;;40.22;21.17;;;;;;;-142.91;100.00;56616.03;5089500;28;20294;-78
2023/12/12 03:11:57;;;;;;;33.50;20.92;;;;;;;-142.91;100.00;56616.03;5110771;28;20201;-79
2023/12/12 03:14:35;;;;;;;42.00;21.67;;;;;;;-142.91;100.00;56616.03;5107311;28;20209;-78
2023/12/12 03:17:04;;;;;;;38.58;19.50;;;;;;;23.90;100.00;56616.03;5107900;28;20209;-81
2023/12/12 03:22:20;;;;;;;37.47;19.88;;;;;;;-142.91;100.00;56616.03;5091381;28;20251;-80
2023/12/12 03:24:50;;;;;;;35.63;19.48;;;;;;;-142.91;100.00;56616.03;5092021;28;20201;-83
2023/12/12 03:27:19;;;;;;;30.50;18.13;;;;;;;24.55;100.00;56616.03;5097574;28;20194;-84
2023/12/12 03:29:56;;;;;;;36.72;20.08;;;;;;;-142.91;100.00;56616.03;5099495;28;20219;-85
2023/12/12 03:32:26;;;;;;;35.78;18.60;;;;;;;-142.91;100.00;56616.03;5093602;28;20218;-82
2023/12/12 03:35:04;;;;;;;33.53;17.70;;;;;;;-142.91;100.00;56616.03;5098057;28;20209;-83
2023/12/12 03:37:32;;;;;;;35.40;19.13;;;;;;;-142.91;100.00;56616.03;5079883;28;20670;-78
2023/12/12 03:39:58;;;;;;;34.50;18.60;;;;;;;-142.91;100.00;56616.03;5097733;28;20255;-77
2023/12/12 03:42:45;;;;;;;35.85;18.35;;;;;;;-142.91;100.00;56616.03;5100919;28;20201;-82
2023/12/12 03:45:33;;;;;;;39.50;19.95;;;;;;;44.04;100.00;56616.03;5100004;28;20189;-78
2023/12/12 03:48:01;;;;;;;34.53;19.70;;;;;;;-142.91;100.00;56616.03;5100218;28;20231;-85
2023/12/12 03:50:35;;;;;;;35.53;19.15;;;;;;;23.41;100.00;56616.03;5101669;28;20197;-77
2023/12/12 03:55:47;;;;;;;39.33;19.73;;;;;;;-142.91;100.00;56616.03;5103781;28;20281;-73
2023/12/12 04:01:47;;;;;;;41.53;22.27;;;;;;;-142.91;100.00;56616.03;5105146;28;20207;-76
2023/12/12 04:10:50;;;;;;;40.20;21.40;;;;;;;23.33;100.00;56616.03;5092408;28;20206;-75
2023/12/12 04:13:59;;;;;;;37.95;20.38;;;;;;;23.29;100.00;56616.03;5072010;28;20202;-79
2023/12/12 04:19:35;;;;;;;39.38;20.83;;;;;;;-142.91;100.00;56616.03;5082765;28;20224;-77
2023/12/12 04:22:37;;;;;;;39.85;20.13;;;;;;;-142.91;100.00;56616.03;5056178;28;20208;-73
2023/12/12 04:31:37;;;;;;;39.22;19.25;;;;;;;23.41;100.00;56616.03;5080906;28;20202;-78
2023/12/12 04:34:05;;;;;;;33.35;19.25;;;;;;;-142.91;100.00;56616.03;5086056;28;20236;-79
2023/12/12 04:39:19;;;;;;;31.15;17.83;;;;;;;-142.91;100.00;56616.03;5088148;28;20206;-76
2023/12/12 04:41:52;;;;;;;30.65;18.05;;;;;;;-142.91;100.00;56616.03;5081616;28;20279;-82
2023/12/12 04:44:21;;;;;;;34.17;18.60;;;;;;;-142.91;100.00;56616.03;5082188;28;20197;-86
2023/12/12 04:46:50;;;;;;;29.17;17.00;;;;;;;-142.91;100.00;56616.03;5066313;28;20206;-78
2023/12/12 04:49:19;;;;;;;38.55;17.85;;;;;;;23.25;100.00;56616.03;5090601;28;20226;-76
2023/12/12 04:51:54;;;;;;;30.35;18.00;;;;;;;23.26;100.00;56616.03;5081590;28;20200;-84
2023/12/12 04:54:35;;;;;;;30.88;18.58;;;;;;;-142.91;100.00;56616.03;5075069;28;20201;-77
2023/12/12 04:57:06;;;;;;;35.63;18.02;;;;;;;-142.91;100.00;56616.03;5073744;28;20300;-84
2023/12/12 04:59:36;;;;;;;31.10;17.70;;;;;;;-142.91;100.00;56616.03;5071302;28;20202;-85
2023/12/12 05:02:13;;;;;;;33.92;17.88;;;;;;;-142.91;100.00;56616.03;5080125;28;20766;-80
2023/12/12 05:04:44;;;;;;;27.48;17.50;;;;;;;-142.91;100.00;56616.03;5076583;28;20191;-79
2023/12/12 05:07:15;;;;;;;32.20;18.05;;;;;;;-142.91;100.00;56616.03;5077650;28;20234;-83
2023/12/12 05:09:49;;;;;;;38.92;19.58;;;;;;;-142.91;100.00;56616.03;5076749;28;20237;-85
2023/12/12 05:12:19;;;;;;;36.17;19.50;;;;;;;23.25;100.00;56616.03;5093490;28;20205;-83
2023/12/12 05:14:51;;;;;;;40.10;21.02;;;;;;;23.33;100.00;56616.03;5096358;28;20225;-75
2023/12/12 05:17:20;;;;;;;47.67;22.73;;;;;;;-142.91;100.00;56616.03;5091933;28;20250;-78
2023/12/12 05:19:47;;;;;;;36.65;20.80;;;;;;;-142.91;100.00;56616.03;5091516;28;20259;-83
2023/12/12 05:22:22;;;;;;;46.10;22.08;;;;;;;-142.91;100.00;56616.03;5096226;28;20261;-80
2023/12/12 05:24:57;;;;;;;46.88;22.55;;;;;;;23.27;100.00;56616.03;5095706;28;20215;-80
2023/12/12 05:27:24;;;;;;;51.80;23.15;;;;;;;23.26;100.00;56616.03;5096148;28;20197;-83
2023/12/12 05:29:51;;;;;;;41.53;21.67;;;;;;;23.25;100.00;56616.03;5097272;28;20217;-85
2023/12/12 05:32:19;;;;;;;41.42;22.55;;;;;;;23.25;100.00;56616.03;5096464;28;20239;-75
2023/12/12 05:34:46;;;;;;;38.47;20.73;;;;;;;-142.91;100.00;56616.03;5077121;28;20224;-82
2023/12/12 05:37:12;;;;;;;36.63;18.92;;;;;;;;;;5071022;28;20216;-79
2023/12/12 05:39:39;;;;;;;37.75;19.75;;;;;;;-142.91;100.00;56616.03;5087335;28;20225;-80
2023/12/12 05:42:11;;;;;;;43.13;20.35;;;;;;;-142.91;100.00;56616.03;5085929;28;20232;-81
2023/12/12 05:44:43;;;;;;;39.72;19.65;;;;;;;-142.91;100.00;56616.03;5094015;28;20686;-79
2023/12/12 05:47:15;;;;;;;40.88;18.75;;;;;;;23.25;100.00;56616.03;5092359;28;20236;-79
2023/12/12 05:49:42;;;;;;;44.65;21.05;;;;;;;;;;5095326;28;20220;-81
2023/12/12 05:52:17;;;;;;;44.80;21.33;;;;;;;23.25;100.00;56616.03;5102046;28;20288;-77
2023/12/12 05:54:49;;;;;;;37.90;22.35;;;;;;;-142.91;100.00;56616.03;5083871;28;20219;-81
2023/12/12 05:57:27;;;;;;;42.63;20.95;;;;;;;-142.91;100.00;56616.03;5085169;28;20209;-78
2023/12/12 05:59:54;;;;;;;37.33;21.15;;;;;;;23.25;100.00;56616.03;5099551;28;20279;-82
2023/12/12 06:02:20;;;;;;;38.88;21.00;;;;;;;23.25;100.00;56616.03;5081764;28;20258;-82
2023/12/12 06:04:48;;;;;;;38.75;21.00;;;;;;;23.25;100.00;56616.03;5099628;28;20235;-80
2023/12/12 06:07:17;;;;;;;37.17;19.98;;;;;;;-142.91;100.00;56616.03;5063186;28;20553;-82
2023/12/12 06:09:48;;;;;;;35.03;19.48;;;;;;;23.25;100.00;56616.03;5098609;28;20333;-80
2023/12/12 06:12:20;;;;;;;32.95;18.23;;;;;;;-142.91;100.00;56616.03;5089600;28;20233;-81
2023/12/12 06:14:48;;;;;;;34.00;17.90;;;;;;;23.26;100.00;56616.03;5093959;28;20205;-82
2023/12/12 06:17:19;;;;;;;36.70;19.45;;;;;;;-142.91;100.00;56616.03;5100381;28;20234;-83
2023/12/12 06:19:49;;;;;;;35.78;18.38;;;;;;;23.25;100.00;56616.03;5079755;28;20281;-82
2023/12/12 06:22:21;;;;;;;34.03;18.38;;;;;;;-142.91;100.00;56616.03;5096268;28;20269;-78
2023/12/12 06:24:52;;;;;;;32.67;17.98;;;;;;;23.26;100.00;56616.03;5097511;28;20219;-80
2023/12/12 06:27:29;;;;;;;35.28;17.20;;;;;;;23.26;100.00;56616.03;5077925;28;20204;-84
2023/12/12 06:30:01;;;;;;;30.65;17.85;;;;;;;23.29;100.00;56616.03;5098868;28;20216;-82
2023/12/12 06:35:13;;;;;;;38.70;18.20;;;;;;;-142.91;100.00;56616.03;5098888;28;20632;-80
2023/12/12 06:37:52;;;;;;;32.47;17.70;;;;;;;-142.91;100.00;56616.03;5081522;28;20197;-80
2023/12/12 06:40:21;;;;;;;46.35;18.40;;;;;;;23.26;100.00;56616.03;5096973;28;20249;-81
2023/12/12 06:42:51;;;;;;;33.65;18.83;;;;;;;-142.91;100.00;56616.03;5099118;28;20208;-78
2023/12/12 06:45:19;;;;;;;40.40;19.08;;;;;;;23.25;100.00;56616.03;5097721;28;20198;-80
2023/12/12 06:47:49;;;;;;;31.98;18.08;;;;;;;23.25;100.00;56616.03;5077300;28;20618;-80
2023/12/12 06:50:20;;;;;;;37.92;17.73;;;;;;;-142.91;100.00;56616.03;5093140;28;20230;-82
2023/12/12 06:52:53;;;;;;;35.40;18.23;;;;;;;23.27;100.00;56616.03;5083006;28;20251;-80
2023/12/12 06:55:21;;;;;;;32.95;16.85;;;;;;;23.25;100.00;56616.03;5098778;28;20209;-81
2023/12/12 06:57:49;;;;;;;40.78;17.75;;;;;;;23.90;100.00;56616.03;5099006;28;21187;-79
2023/12/12 07:00:17;;;;;;;34.10;16.42;;;;;;;23.26;100.00;56616.03;5103164;28;20882;-78
2023/12/12 07:02:44;;;;;;;27.63;15.88;;;;;;;23.25;100.00;56616.03;5082082;28;20658;-78
2023/12/12 07:05:10;;;;;;;38.70;17.95;;;;;;;23.26;100.00;56616.03;5101348;28;20217;-79
2023/12/12 07:07:37;;;;;;;36.30;16.55;;;;;;;;;;5078486;28;20213;-80
2023/12/12 07:10:10;;;;;;;29.27;17.42;;;;;;;23.25;100.00;56616.03;5101159;28;20299;-81
2023/12/12 07:12:39;;;;;;;40.65;19.30;;;;;;;23.25;100.00;56616.03;5087034;28;21427;-76
2023/12/12 07:15:27;;;;;;;48.00;16.75;;;;;;;-142.91;100.00;56616.03;5079955;28;20198;-80
2023/12/12 07:17:54;;;;;;;38.55;17.15;;;;;;;23.27;100.00;56616.03;5100306;28;20206;-80
2023/12/12 07:20:21;;;;;;;42.35;18.00;;;;;;;23.26;100.00;56616.03;5097755;28;20189;-80
2023/12/12 07:22:56;;;;;;;47.22;17.90;;;;;;;23.26;100.00;56616.03;5085834;28;20197;-75
2023/12/12 07:25:31;;;;;;;50.28;19.27;;;;;;;-142.91;100.00;56616.03;5103150;28;20213;-75
2023/12/12 07:27:58;;;;;;;33.60;16.65;;;;;;;;;;5082358;28;20204;-78
2023/12/12 07:30:27;;;;;;;27.05;13.52;;;;;;;-142.91;100.00;56616.03;5097867;28;20236;-78
2023/12/12 07:33:00;;;;;;;27.48;12.85;;;;;;;-142.91;100.00;56616.03;5101792;28;20628;-78
2023/12/12 07:35:27;;;;;;;29.85;12.15;;;;;;;23.25;100.00;56616.03;5079278;28;20201;-77
2023/12/12 07:37:54;;;;;;;17.27;11.63;;;;;;;;;;5080062;28;20201;-78
2023/12/12 07:40:25;;;;;;;17.25;11.65;;;;;;;-142.91;100.00;56616.03;5098777;28;20200;-79
2023/12/12 07:42:52;;;;;;;17.77;11.02;;;;;;;23.26;100.00;56616.03;5093602;28;20255;-81
2023/12/12 07:45:22;;;;;;;21.52;10.88;;;;;;;-142.91;100.00;56616.03;5081262;28;20223;-79
2023/12/12 07:47:52;;;;;;;24.02;12.07;;;;;;;-142.91;100.00;56616.03;5095449;28;20668;-80
2023/12/12 07:50:22;;;;;;;21.60;11.70;;;;;;;-142.91;100.00;56616.03;5102181;28;20213;-80
2023/12/12 07:52:49;;;;;;;15.40;10.18;;;;;;;;;;5098553;28;20206;-76
2023/12/12 07:55:19;;;;;;;21.90;12.15;;;;;;;23.25;100.00;56616.03;5104523;28;20253;-79
2023/12/12 07:57:49;;;;;;;24.10;12.15;;;;;;;-142.91;100.00;56616.03;5103643;28;20197;-77
2023/12/12 08:00:19;;;;;;;15.77;9.90;;;;;;;-142.91;100.00;56616.03;5104991;28;20203;-81
2023/12/12 08:02:45;;;;;;;20.10;11.10;;;;;;;-142.91;100.00;56616.03;5095094;28;20655;-81
2023/12/12 08:05:17;;;;;;;15.65;9.93;;;;;;;-142.91;100.00;56616.03;5097485;28;20201;-81
2023/12/12 08:07:44;;;;;;;16.27;9.10;;;;;;;-142.91;100.00;56616.03;5098734;28;20197;-82
2023/12/12 08:10:11;;;;;;;19.73;9.60;;;;;;;23.26;100.00;56616.03;5100039;28;20224;-81
2023/12/12 08:12:38;;;;;;;18.50;8.90;;;;;;;23.26;100.00;56616.03;5103690;28;20265;-80
2023/12/12 08:15:08;;;;;;;13.32;7.80;;;;;;;23.26;100.00;56616.03;5103989;28;20247;-78
2023/12/12 08:17:40;;;;;;;15.27;7.75;;;;;;;;;;5085577;28;20284;-79
2023/12/12 08:20:10;;;;;;;13.90;6.70;;;;;;;-142.91;100.00;56616.03;5099411;28;20200;-81
2023/12/12 08:22:42;;;;;;;14.50;7.78;;;;;;;-142.91;100.00;56616.03;5080396;28;20196;-78
2023/12/12 08:25:13;;;;;;;15.98;8.05;;;;;;;-142.91;100.00;56616.03;5095175;28;20734;-80
2023/12/12 08:27:40;;;;;;;14.18;7.72;;;;;;;;;;5095617;28;20871;-80
2023/12/12 08:30:09;;;;;;;24.27;9.52;;;;;;;-142.91;100.00;56616.03;5078556;28;20221;-81
2023/12/12 08:35:43;;;;;;;26.33;9.48;;;;;;;-142.91;100.00;56616.03;5100997;28;20212;-76
2023/12/12 08:38:11;;;;;;;22.63;9.82;;;;;;;-142.91;100.00;56616.03;5098388;28;20635;-77
2023/12/12 08:40:38;;;;;;;17.15;8.27;;;;;;;-142.91;100.00;56616.03;5087626;28;20185;-79
2023/12/12 08:43:05;;;;;;;17.48;9.07;;;;;;;-142.91;100.00;56616.03;5090598;28;20198;-87
2023/12/12 08:45:32;;;;;;;20.00;8.43;;;;;;;-142.91;100.00;56616.03;5065519;28;20198;-80
2023/12/12 08:47:59;;;;;;;20.65;7.45;;;;;;;;;;5064284;28;20212;-80
2023/12/12 08:50:25;;;;;;;15.95;7.88;;;;;;;-142.91;100.00;56616.03;5054885;28;20690;-82
2023/12/12 08:52:55;;;;;;;10.90;5.85;;;;;;;-142.91;100.00;56616.03;5073098;28;20221;-84
2023/12/12 08:55:23;;;;;;;12.93;7.03;;;;;;;-142.91;100.00;56616.03;5097511;28;20219;-78
2023/12/12 08:57:50;;;;;;;11.55;6.05;;;;;;;;;;5095254;28;20224;-79
2023/12/12 09:00:17;;;;;;;8.32;5.75;;;;;;;-142.91;100.00;56616.03;5076856;28;20205;-77
2023/12/12 09:02:44;;;;;;;8.93;4.88;;;;;;;-142.91;100.00;56616.03;5073903;28;20227;-76
2023/12/12 09:05:11;;;;;;;6.90;4.60;;;;;;;;;;5060749;28;20208;-80
2023/12/12 09:07:38;;;;;;;8.82;4.60;;;;;;;-142.91;100.00;56616.03;5091795;28;20216;-81
2023/12/12 09:10:05;;;;;;;12.02;4.78;;;;;;;;;;5086062;28;20241;-78
2023/12/12 09:12:34;;;;;;;6.65;4.65;;;;;;;-142.91;100.00;56616.03;5078516;28;20200;-85
2023/12/12 09:15:01;;;;;;;5.93;3.67;;;;;;;23.25;100.00;56616.03;5079624;28;20260;-79
2023/12/12 09:17:29;;;;;;;5.35;3.65;;;;;;;-142.91;100.00;56616.03;5076565;28;20216;-77
2023/12/12 09:19:56;;;;;;;9.43;4.45;;;;;;;23.26;100.00;56616.03;5093769;28;20204;-80
2023/12/12 09:22:24;;;;;;;13.15;3.85;;;;;;;-142.91;100.00;56616.03;5086460;28;20254;-80
2023/12/12 09:24:50;;;;;;;10.65;5.15;;;;;;;23.25;100.00;56616.03;5075273;28;20232;-79
2023/12/12 09:27:18;;;;;;;11.65;5.40;;;;;;;23.26;100.00;56616.03;5101479;28;20224;-79
2023/12/12 09:29:46;;;;;;;8.63;5.45;;;;;;;23.29;100.00;56616.03;5080170;28;20662;-77
2023/12/12 09:32:13;;;;;;;21.23;6.40;;;;;;;23.25;100.00;56616.03;5096761;28;20249;-76
2023/12/12 09:34:39;;;;;;;14.05;5.50;;;;;;;;;;5093948;28;20665;-79
2023/12/12 09:37:06;;;;;;;11.27;5.72;;;;;;;;;;5096109;28;20706;-76
2023/12/12 09:39:32;;;;;;;22.60;5.60;;;;;;;;;;5095134;28;20197;-76
2023/12/12 09:42:01;;;;;;;4.93;3.70;;;;;;;23.25;100.00;56616.03;5089394;28;20197;-77
2023/12/12 09:44:34;;;;;;;6.82;2.53;;;;;;;23.25;100.00;56616.03;5091198;28;20225;-80
2023/12/12 09:47:03;;;;;;;2.53;2.33;;;;;;;23.25;100.00;56616.03;5065196;28;20293;-78
2023/12/12 09:49:33;;;;;;;7.13;2.60;;;;;;;23.26;100.00;56616.03;5090019;28;20644;-78
2023/12/12 09:52:01;;;;;;;3.05;2.33;;;;;;;23.26;100.00;56616.03;5079016;28;20381;-77
2023/12/12 09:54:29;;;;;;;4.43;2.22;;;;;;;23.25;100.00;56616.03;5090364;28;20231;-78
2023/12/12 09:56:56;;;;;;;5.35;2.17;;;;;;;-142.91;100.00;56616.03;5091906;28;20247;-80
2023/12/12 09:59:23;;;;;;;5.72;2.42;;;;;;;23.26;100.00;56616.03;5076198;28;20246;-80
2023/12/12 10:01:52;;;;;;;3.08;1.77;;;;;;;-142.91;100.00;56616.03;5056541;28;20284;-80
2023/12/12 10:04:22;;;;;;;2.65;2.03;;;;;;;23.25;100.00;56616.03;5088169;28;20592;-79
2023/12/12 10:06:52;;;;;;;4.30;2.28;;;;;;;23.25;100.00;56616.03;5067704;28;20237;-80
2023/12/12 10:09:20;;;;;;;2.90;2.55;;;;;;;23.25;100.00;56616.03;5073858;28;20231;-79
2023/12/12 10:11:48;;;;;;;2.42;2.22;;;;;;;;;;5095953;28;20497;-80
2023/12/12 10:14:15;;;;;;;2.28;2.05;;;;;;;23.25;100.00;56616.03;5081019;28;20213;-82
2023/12/12 10:16:44;;;;;;;1.95;1.52;;;;;;;-142.91;100.00;56616.03;5074218;28;20198;-79
2023/12/12 10:19:13;;;;;;;2.55;1.70;;;;;;;23.25;100.00;56616.03;5095876;28;20189;-79
2023/12/12 10:21:45;;;;;;;4.68;1.77;;;;;;;-142.91;100.00;56616.03;5076632;28;20224;-77
2023/12/12 10:24:13;;;;;;;3.05;1.92;;;;;;;23.25;100.00;56616.03;5096179;28;20197;-80
2023/12/12 10:26:39;;;;;;;3.33;1.90;;;;;;;23.25;100.00;56616.03;5094215;28;20194;-80
2023/12/12 10:29:06;;;;;;;2.65;1.98;;;;;;;-142.91;100.00;56616.03;5079208;28;20211;-81
2023/12/12 10:31:36;;;;;;;2.55;2.35;;;;;;;23.27;100.00;56616.03;5100887;28;20720;-78
2023/12/12 10:34:03;;;;;;;1.70;1.60;;;;;;;23.29;100.00;56616.03;5100458;28;20190;-78
2023/12/12 10:36:30;;;;;;;4.28;2.88;;;;;;;23.25;100.00;56616.03;5097854;28;20666;-80
2023/12/12 10:39:12;;;;;;;7.30;3.08;;;;;;;23.25;100.00;56616.03;5099074;28;20352;-79
2023/12/12 10:41:39;;;;;;;6.40;4.20;;;;;;;23.25;100.00;56616.03;5099410;28;20229;-82
2023/12/12 10:44:06;;;;;;;6.60;3.88;;;;;;;-142.91;100.00;56616.03;5098439;28;20235;-81
2023/12/12 10:46:38;;;;;;;11.77;4.07;;;;;;;-142.91;100.00;56616.03;5099546;28;20198;-86
2023/12/12 10:49:08;;;;;;;16.77;4.18;;;;;;;-142.91;100.00;56616.03;5080375;28;20620;-80
2023/12/12 10:51:35;;;;;;;6.10;3.72;;;;;;;23.25;100.00;56616.03;5099136;28;20201;-74
2023/12/12 10:54:05;;;;;;;7.40;4.28;;;;;;;23.25;100.00;56616.03;5100995;28;20205;-83
2023/12/12 10:56:35;;;;;;;10.18;4.57;;;;;;;-142.91;100.00;56616.03;5097194;28;20210;-82
2023/12/12 10:59:03;;;;;;;6.15;4.80;;;;;;;-142.91;100.00;56616.03;5099155;28;20201;-82
2023/12/12 11:01:34;;;;;;;8.18;4.00;;;;;;;-142.91;100.00;56616.03;5098480;28;20687;-81
2023/12/12 11:04:05;;;;;;;9.18;4.03;;;;;;;-142.91;100.00;56616.03;5094979;28;21058;-82
2023/12/12 11:06:34;;;;;;;8.15;3.67;;;;;;;-142.91;100.00;56616.03;5097280;28;20212;-77
2023/12/12 11:09:03;;;;;;;6.57;3.40;;;;;;;-142.91;100.00;56616.03;5099156;28;20287;-81
2023/12/12 11:11:33;;;;;;;4.22;3.20;;;;;;;23.57;100.00;56616.03;5101217;28;20274;-76
2023/12/12 11:14:01;;;;;;;8.13;3.90;;;;;;;-142.91;100.00;56616.03;5099776;28;20216;-81
2023/12/12 11:16:30;;;;;;;6.57;3.40;;;;;;;;;;5094243;28;20267;-82
2023/12/12 11:19:00;;;;;;;19.33;3.22;;;;;;;-142.91;100.00;56616.03;5097309;28;20194;-80
2023/12/12 11:21:47;;;;;;;4.20;3.22;;;;;;;;;;5078716;28;20669;-82
2023/12/12 11:24:17;;;;;;;5.88;3.17;;;;;;;-142.91;100.00;56616.03;5091897;28;20206;-81
2023/12/12 11:26:48;;;;;;;6.55;3.42;;;;;;;-142.91;100.00;56616.03;5094541;28;20661;-76
2023/12/12 11:29:20;;;;;;;10.10;4.05;;;;;;;-142.91;100.00;56616.03;5093858;28;20224;-82
2023/12/12 11:32:12;;;;;;;9.20;5.00;;;;;;;-142.91;100.00;56616.03;5075334;28;20229;-80
2023/12/12 11:34:42;;;;;;;6.72;4.25;;;;;;;-142.91;100.00;56616.03;5074370;28;20203;-84
2023/12/12 11:37:09;;;;;;;11.07;3.65;;;;;;;23.25;100.00;56616.03;5074250;28;20205;-80
2023/12/12 11:39:45;;;;;;;8.75;4.63;;;;;;;23.25;100.00;56616.03;5092992;28;20197;-82
2023/12/12 11:42:20;;;;;;;7.28;4.93;;;;;;;-142.91;100.00;56616.03;5076036;28;20713;-84
2023/12/12 11:44:49;;;;;;;6.38;3.55;;;;;;;-142.91;100.00;56616.03;5092393;28;20243;-83
2023/12/12 11:47:20;;;;;;;14.07;3.70;;;;;;;-142.91;100.00;56616.03;5094265;28;20196;-80
2023/12/12 11:49:48;;;;;;;6.57;4.20;;;;;;;-142.91;100.00;56616.03;5093749;28;20206;-82
2023/12/12 11:52:48;;;;;;;14.27;4.55;;;;;;;-142.91;100.00;56616.03;5077120;28;20201;-83
2023/12/12 11:55:20;;;;;;;7.97;3.30;;;;;;;-142.91;100.00;56616.03;5069330;28;20209;-80
2023/12/12 11:57:48;;;;;;;15.55;3.13;;;;;;;;;;5096070;28;20206;-78
2023/12/12 12:00:17;;;;;;;9.48;4.90;;;;;;;-142.91;100.00;56616.03;5098326;28;20206;-82
2023/12/12 12:02:44;;;;;;;16.95;6.78;;;;;;;-142.91;100.00;56616.03;5091298;28;20197;-82
2023/12/12 12:05:14;;;;;;;8.15;5.57;;;;;;;-142.91;100.00;56616.03;5088678;28;20198;-82
2023/12/12 12:07:42;;;;;;;11.00;5.55;;;;;;;-142.91;100.00;56616.03;5088477;28;20201;-77
2023/12/12 12:10:10;;;;;;;20.83;7.80;;;;;;;-142.91;100.00;56616.03;5094061;28;20245;-82
2023/12/12 12:12:38;;;;;;;15.10;4.80;;;;;;;23.25;100.00;56616.03;5098413;28;20197;-79
2023/12/12 12:15:22;;;;;;;5.07;3.97;;;;;;;23.25;100.00;56616.03;5091352;28;20209;-81
2023/12/12 12:17:51;;;;;;;6.35;4.10;;;;;;;23.25;100.00;56616.03;5099089;28;20205;-81
2023/12/12 12:20:19;;;;;;;4.38;3.42;;;;;;;-142.91;100.00;56616.03;5080835;28;20514;-82
2023/12/12 12:22:49;;;;;;;3.72;3.42;;;;;;;-142.91;100.00;56616.03;5063104;28;20219;-82
2023/12/12 12:25:26;;;;;;;5.78;3.28;;;;;;;23.25;100.00;56616.03;5060495;28;20461;-83
2023/12/12 12:27:55;;;;;;;7.97;3.67;;;;;;;-142.91;100.00;56616.03;5084241;28;20673;-84
2023/12/12 12:30:25;;;;;;;4.30;3.90;;;;;;;23.25;100.00;56616.03;5073108;28;20217;-80
2023/12/12 12:33:02;;;;;;;4.30;3.90;;;;;;;-142.91;100.00;56616.03;5099859;28;20256;-85
2023/12/12 12:35:29;;;;;;;9.50;4.07;;;;;;;23.25;100.00;56616.03;5071918;28;20241;-82
2023/12/12 12:37:58;;;;;;;5.40;3.90;;;;;;;-142.91;100.00;56616.03;5076598;28;20686;-80
2023/12/12 12:40:33;;;;;;;3.97;3.13;;;;;;;-142.91;100.00;56616.03;5078885;28;20189;-82
2023/12/12 12:43:00;;;;;;;4.20;2.70;;;;;;;;;;5073197;28;20202;-80
2023/12/12 12:45:33;;;;;;;3.45;3.15;;;;;;;-142.91;100.00;56616.03;5081069;28;20190;-79
2023/12/12 12:48:02;;;;;;;6.78;3.10;;;;;;;23.26;100.00;56616.03;5082627;28;20211;-82